Time;durP1;ratioP1;P1;durP2;ratioP2;P2;SDS_P1;SDS_P2;PMS_P1;PMS_P2;Temp;Humidity;BMP_temperature;BMP_pressure;BME280_temperature;BME280_humidity;BME280_pressure;Samples;Min_cycle;Max_cycle;Signal;HPM_P1;HPM_P2
2024/03/16 00:00:14;;;;;;;4.05;0.80;;;;;;;7.42;100.00;96836.69;5034588;28;20086;-71
2024/03/16 00:02:39;;;;;;;2.33;0.82;;;;;;;7.37;100.00;96832.25;5030417;28;20041;-69
2024/03/16 00:05:05;;;;;;;3.55;0.90;;;;;;;7.45;100.00;96828.63;5034144;28;20087;-68
2024/03/16 00:07:30;;;;;;;2.75;0.65;;;;;;;7.45;100.00;96830.53;5039165;28;20049;-71
2024/03/16 00:09:56;;;;;;;2.47;0.75;;;;;;;7.31;100.00;96832.81;5038827;28;20510;-70
2024/03/16 00:12:24;;;;;;;4.50;0.93;;;;;;;7.25;100.00;96833.03;5034954;28;20544;-70
2024/03/16 00:14:50;;;;;;;2.75;1.17;;;;;;;7.29;100.00;96822.25;5037678;28;20068;-70
2024/03/16 00:17:17;;;;;;;1.80;0.60;;;;;;;7.28;100.00;96817.94;5030529;28;20045;-70
2024/03/16 00:19:45;;;;;;;2.72;0.75;;;;;;;7.26;100.00;96821.00;5030995;28;20133;-71
2024/03/16 00:22:11;;;;;;;3.63;0.70;;;;;;;7.17;100.00;96819.56;5025980;28;20037;-70
2024/03/16 00:24:36;;;;;;;5.88;1.15;;;;;;;7.14;100.00;96815.56;5037188;28;20122;-71
2024/03/16 00:27:02;;;;;;;3.25;0.90;;;;;;;7.04;100.00;96824.19;5034637;28;20067;-70
2024/03/16 00:29:28;;;;;;;1.23;0.80;;;;;;;7.05;100.00;96829.28;5035326;28;20053;-70
2024/03/16 00:31:53;;;;;;;3.90;0.85;;;;;;;7.16;100.00;96828.84;5035656;28;20037;-70
2024/03/16 00:34:19;;;;;;;3.72;0.70;;;;;;;7.13;100.00;96829.53;5025311;28;20495;-71
2024/03/16 00:36:44;;;;;;;0.90;0.50;;;;;;;7.14;100.00;96840.09;5042163;28;20079;-70
2024/03/16 00:39:15;;;;;;;0.95;0.55;;;;;;;7.11;100.00;96829.84;5034518;28;20029;-70
2024/03/16 00:41:44;;;;;;;4.53;1.25;;;;;;;7.19;100.00;96822.72;5037857;28;20616;-70
2024/03/16 00:44:10;;;;;;;2.57;1.03;;;;;;;7.12;100.00;96808.88;5018294;28;20036;-70
2024/03/16 00:46:36;;;;;;;1.13;0.70;;;;;;;7.15;100.00;96811.72;5038469;28;20103;-70
2024/03/16 00:49:02;;;;;;;3.60;0.93;;;;;;;7.24;100.00;96817.06;5036569;28;20099;-69
2024/03/16 00:51:28;;;;;;;4.57;0.77;;;;;;;7.23;100.00;96818.19;5036633;28;20049;-70
2024/03/16 00:53:54;;;;;;;1.27;0.88;;;;;;;7.20;100.00;96816.94;5040654;28;20053;-70
2024/03/16 00:56:23;;;;;;;1.17;0.60;;;;;;;7.24;100.00;96817.84;5035415;28;20066;-70
2024/03/16 00:58:49;;;;;;;2.72;0.70;;;;;;;7.32;100.00;96813.41;5008120;28;20084;-70
2024/03/16 01:01:14;;;;;;;2.78;0.70;;;;;;;7.35;100.00;96811.94;5017909;28;20131;-70
2024/03/16 01:03:40;;;;;;;0.65;0.43;;;;;;;7.17;100.00;96808.66;5041384;28;20586;-70
2024/03/16 01:06:05;;;;;;;2.05;0.60;;;;;;;6.93;100.00;96825.78;5035562;28;20040;-70
2024/03/16 01:08:31;;;;;;;1.30;0.57;;;;;;;6.76;100.00;96819.41;5041791;28;20045;-70
2024/03/16 01:10:56;;;;;;;1.73;0.50;;;;;;;6.70;100.00;96824.28;5041188;28;20041;-70
2024/03/16 01:13:22;;;;;;;0.50;0.50;;;;;;;6.59;100.00;96825.88;5028948;28;20359;-69
2024/03/16 01:15:48;;;;;;;0.88;0.60;;;;;;;6.58;100.00;96831.63;5042061;28;20049;-69
2024/03/16 01:18:13;;;;;;;0.77;0.57;;;;;;;6.62;100.00;96843.44;5033177;28;20133;-69
2024/03/16 01:20:43;;;;;;;1.35;0.52;;;;;;;6.63;100.00;96851.25;5036239;28;20128;-70
2024/03/16 01:23:08;;;;;;;1.80;0.82;;;;;;;6.65;100.00;96849.00;5020712;28;20045;-69
2024/03/16 01:25:34;;;;;;;1.58;0.52;;;;;;;6.81;100.00;96853.81;5015879;28;20500;-70
2024/03/16 01:27:59;;;;;;;0.63;0.52;;;;;;;6.93;100.00;96851.06;5042092;28;20139;-71
2024/03/16 01:30:24;;;;;;;1.55;0.63;;;;;;;6.97;100.00;96848.47;5002562;28;20045;-70
2024/03/16 01:32:50;;;;;;;0.95;0.60;;;;;;;6.95;100.00;96848.81;5024373;28;20104;-70
2024/03/16 01:35:15;;;;;;;1.17;0.60;;;;;;;7.05;100.00;96837.47;5031590;28;20056;-71
2024/03/16 01:37:41;;;;;;;1.10;0.65;;;;;;;7.16;100.00;96837.81;5024337;28;20044;-70
2024/03/16 01:40:07;;;;;;;1.10;0.60;;;;;;;7.11;100.00;96818.19;5042098;28;20099;-70
2024/03/16 01:42:32;;;;;;;1.92;0.75;;;;;;;7.17;100.00;96820.34;5040694;28;20045;-70
2024/03/16 01:45:11;;;;;;;1.00;0.65;;;;;;;7.01;100.00;96814.78;5040088;28;20049;-70
2024/03/16 01:47:39;;;;;;;4.10;0.93;;;;;;;6.84;100.00;96815.00;5040166;28;20047;-70
2024/03/16 01:50:05;;;;;;;3.83;1.70;;;;;;;6.61;100.00;96807.25;5016222;28;20051;-70
2024/03/16 01:52:32;;;;;;;3.60;1.38;;;;;;;6.55;100.00;96805.88;5035601;28;20067;-69
2024/03/16 01:54:58;;;;;;;4.75;1.20;;;;;;;6.44;100.00;96802.00;5040406;28;20542;-69
2024/03/16 01:57:23;;;;;;;4.05;1.00;;;;;;;6.38;100.00;96797.94;5035508;28;20876;-69
2024/03/16 01:59:50;;;;;;;1.85;0.95;;;;;;;6.38;100.00;96801.44;5022991;28;20052;-69
2024/03/16 02:02:27;;;;;;;0.70;0.50;;;;;;;6.48;100.00;96787.41;5033979;28;20373;-70
2024/03/16 02:04:53;;;;;;;6.00;0.88;;;;;;;6.41;100.00;96789.88;5039679;28;20134;-70
2024/03/16 02:07:18;;;;;;;0.88;0.50;;;;;;;6.30;100.00;96786.00;5035270;28;20074;-70
2024/03/16 02:09:44;;;;;;;1.33;0.60;;;;;;;6.26;100.00;96782.34;5038834;28;20524;-69
2024/03/16 02:12:13;;;;;;;4.03;0.50;;;;;;;6.28;100.00;96783.63;5035923;28;20047;-69
2024/03/16 02:14:38;;;;;;;0.45;0.43;;;;;;;6.28;100.00;96780.91;5040065;28;20041;-70
2024/03/16 02:17:04;;;;;;;2.47;0.50;;;;;;;6.30;100.00;96777.81;5016737;28;20052;-69
2024/03/16 02:19:31;;;;;;;0.47;0.40;;;;;;;6.25;100.00;96775.34;5026510;28;20622;-69
2024/03/16 02:21:57;;;;;;;1.25;0.50;;;;;;;6.18;100.00;96783.25;5040179;28;20120;-69
2024/03/16 02:24:23;;;;;;;0.82;0.40;;;;;;;6.29;100.00;96781.69;5036480;28;20605;-69
2024/03/16 02:26:51;;;;;;;0.55;0.50;;;;;;;6.44;100.00;96783.75;5038968;28;20180;-70
2024/03/16 02:29:18;;;;;;;0.50;0.50;;;;;;;6.60;100.00;96783.09;5032061;28;20136;-69
2024/03/16 02:31:43;;;;;;;0.43;0.40;;;;;;;6.58;100.00;96785.38;5035364;28;20068;-69
2024/03/16 02:34:09;;;;;;;0.63;0.52;;;;;;;6.57;100.00;96791.94;5027113;28;20041;-70
2024/03/16 02:36:34;;;;;;;0.50;0.50;;;;;;;6.48;100.00;96805.63;5040229;28;20041;-70
2024/03/16 02:38:59;;;;;;;1.60;0.57;;;;;;;6.49;100.00;96796.34;5039537;28;20048;-69
2024/03/16 02:41:25;;;;;;;2.65;0.52;;;;;;;6.26;100.00;96794.03;5019434;28;20080;-69
2024/03/16 02:43:50;;;;;;;2.00;0.50;;;;;;;6.19;100.00;96796.50;5023118;28;20629;-70
2024/03/16 02:46:16;;;;;;;2.05;0.50;;;;;;;6.18;100.00;96796.84;5026431;28;20045;-69
2024/03/16 02:48:41;;;;;;;2.15;0.50;;;;;;;6.08;100.00;96793.41;5039864;28;20048;-68
2024/03/16 02:51:07;;;;;;;0.75;0.40;;;;;;;6.07;100.00;96797.28;5034031;28;20045;-67
2024/03/16 02:53:34;;;;;;;0.60;0.50;;;;;;;6.07;100.00;96780.16;5039940;28;20049;-67
2024/03/16 02:56:00;;;;;;;2.15;0.80;;;;;;;6.05;100.00;96791.38;5039342;28;20512;-67
2024/03/16 02:58:25;;;;;;;0.77;0.60;;;;;;;6.08;100.00;96785.25;5034061;28;20073;-67
2024/03/16 03:00:51;;;;;;;0.77;0.70;;;;;;;6.27;100.00;96783.97;5039810;28;20067;-70
2024/03/16 03:03:17;;;;;;;0.70;0.60;;;;;;;6.28;100.00;96780.91;5033289;28;20047;-70
2024/03/16 03:05:42;;;;;;;3.47;0.60;;;;;;;6.29;100.00;96774.31;5039412;28;20491;-70
2024/03/16 03:08:08;;;;;;;2.35;0.82;;;;;;;6.26;100.00;96774.19;5034427;28;20047;-69
2024/03/16 03:10:33;;;;;;;0.77;0.50;;;;;;;6.36;100.00;96786.59;5039256;28;20669;-70
2024/03/16 03:12:59;;;;;;;0.75;0.50;;;;;;;6.50;100.00;96782.41;5039201;28;20392;-68
2024/03/16 03:15:24;;;;;;;1.13;0.75;;;;;;;6.58;100.00;96775.28;5032038;28;20147;-68
2024/03/16 03:17:50;;;;;;;1.48;0.75;;;;;;;6.63;100.00;96777.78;5038981;28;20045;-69
2024/03/16 03:20:15;;;;;;;0.82;0.68;;;;;;;6.59;100.00;96776.06;5034243;28;20391;-69
2024/03/16 03:22:40;;;;;;;0.65;0.50;;;;;;;6.52;100.00;96771.19;5038657;28;20041;-69
2024/03/16 03:25:06;;;;;;;1.60;0.52;;;;;;;6.53;100.00;96775.50;5034196;28;20479;-69
2024/03/16 03:27:31;;;;;;;0.60;0.60;;;;;;;6.72;100.00;96774.16;5027362;28;20094;-69
2024/03/16 03:29:57;;;;;;;0.47;0.47;;;;;;;6.74;100.00;96777.34;5021102;28;20050;-68
2024/03/16 03:32:22;;;;;;;1.55;0.60;;;;;;;6.61;100.00;96773.78;5007482;28;20485;-68
2024/03/16 03:34:48;;;;;;;0.77;0.55;;;;;;;6.74;100.00;96789.03;5037846;28;20119;-70
2024/03/16 03:37:14;;;;;;;0.60;0.52;;;;;;;6.98;100.00;96784.72;5024783;28;20060;-70
2024/03/16 03:39:39;;;;;;;0.75;0.50;;;;;;;7.15;100.00;96783.66;5013037;28;20052;-69
2024/03/16 03:42:05;;;;;;;3.42;0.70;;;;;;;7.16;100.00;96786.06;5026561;28;20053;-68
2024/03/16 03:44:38;;;;;;;0.50;0.50;;;;;;;6.74;100.00;96791.75;5042065;28;20048;-69
2024/03/16 03:47:04;;;;;;;0.50;0.50;;;;;;;6.46;100.00;96795.13;5034553;28;20081;-67
2024/03/16 03:49:32;;;;;;;1.92;0.57;;;;;;;6.30;100.00;96799.59;5039264;28;20697;-67
2024/03/16 03:51:58;;;;;;;0.50;0.50;;;;;;;6.43;100.00;96795.78;5039461;28;20049;-68
2024/03/16 03:54:24;;;;;;;0.50;0.50;;;;;;;6.52;100.00;96803.84;5035697;28;20048;-68
2024/03/16 03:56:50;;;;;;;0.68;0.50;;;;;;;6.54;100.00;96800.81;5031744;28;20092;-68
2024/03/16 03:59:15;;;;;;;0.85;0.60;;;;;;;6.53;100.00;96801.91;5021618;28;20143;-67
2024/03/16 04:01:41;;;;;;;8.57;0.80;;;;;;;6.58;100.00;96804.44;5036022;28;20194;-67
2024/03/16 04:04:06;;;;;;;2.05;0.60;;;;;;;6.61;100.00;96807.25;5045023;28;20053;-67
2024/03/16 04:06:31;;;;;;;1.65;0.70;;;;;;;6.68;100.00;96806.69;5029408;28;20049;-68
2024/03/16 04:08:57;;;;;;;0.60;0.60;;;;;;;6.66;100.00;96806.22;5023357;28;20045;-68
2024/03/16 04:11:22;;;;;;;0.50;0.50;;;;;;;6.73;100.00;96811.13;5023633;28;20041;-68
2024/03/16 04:13:49;;;;;;;2.13;1.20;;;;;;;6.69;100.00;96806.34;5040852;28;20139;-68
2024/03/16 04:16:14;;;;;;;2.95;1.45;;;;;;;6.76;100.00;96802.28;5037538;28;20491;-68
2024/03/16 04:18:40;;;;;;;2.15;1.00;;;;;;;6.92;100.00;96795.03;5039872;28;20053;-67
2024/03/16 04:21:07;;;;;;;2.88;0.85;;;;;;;6.98;100.00;96807.28;5034614;28;20049;-67
2024/03/16 04:23:32;;;;;;;1.75;0.70;;;;;;;6.88;100.00;96805.81;5038739;28;20045;-68
2024/03/16 04:25:58;;;;;;;1.95;0.50;;;;;;;6.89;100.00;96809.31;5038340;28;20067;-67
2024/03/16 04:28:23;;;;;;;0.65;0.65;;;;;;;6.97;100.00;96810.34;5038104;28;20053;-68
2024/03/16 04:30:49;;;;;;;4.13;0.80;;;;;;;7.06;100.00;96800.94;5041999;28;20055;-68
2024/03/16 04:33:15;;;;;;;2.40;0.50;;;;;;;7.07;100.00;96797.06;5019744;28;20380;-67
2024/03/16 04:35:41;;;;;;;1.00;0.60;;;;;;;7.07;100.00;96807.97;5038380;28;20041;-67
2024/03/16 04:38:09;;;;;;;1.75;0.60;;;;;;;7.04;100.00;96813.28;5026607;28;20535;-67
2024/03/16 04:40:35;;;;;;;0.50;0.50;;;;;;;6.94;100.00;96817.28;5028573;28;20147;-67
2024/03/16 04:43:00;;;;;;;0.93;0.77;;;;;;;7.05;100.00;96812.97;5041554;28;20045;-66
2024/03/16 04:45:26;;;;;;;0.68;0.60;;;;;;;7.10;100.00;96813.88;5025952;28;20091;-68
2024/03/16 04:47:52;;;;;;;0.70;0.60;;;;;;;7.18;100.00;96802.06;5040228;28;20057;-68
2024/03/16 04:50:17;;;;;;;3.03;0.70;;;;;;;7.35;100.00;96803.75;5038961;28;20128;-67
2024/03/16 04:52:42;;;;;;;0.63;0.63;;;;;;;7.34;100.00;96802.16;5041711;28;20091;-67
2024/03/16 04:55:08;;;;;;;0.63;0.50;;;;;;;7.43;100.00;96795.44;5036056;28;20534;-68
2024/03/16 04:57:33;;;;;;;0.68;0.60;;;;;;;7.47;100.00;96795.53;5041367;28;20045;-68
2024/03/16 04:59:58;;;;;;;4.80;0.52;;;;;;;7.43;100.00;96789.97;5042141;28;20118;-68
2024/03/16 05:02:24;;;;;;;0.50;0.50;;;;;;;7.42;100.00;96793.06;5035214;28;20040;-69
2024/03/16 05:04:49;;;;;;;0.95;0.60;;;;;;;7.46;100.00;96793.97;5042359;28;20053;-71
2024/03/16 05:07:15;;;;;;;0.85;0.60;;;;;;;7.37;100.00;96794.09;5037565;28;20470;-69
2024/03/16 05:09:40;;;;;;;0.77;0.60;;;;;;;7.31;100.00;96790.03;5041841;28;20045;-70
2024/03/16 05:12:06;;;;;;;0.63;0.52;;;;;;;7.25;100.00;96796.84;5017864;28;20446;-69
2024/03/16 05:14:31;;;;;;;1.65;0.60;;;;;;;7.19;100.00;96795.50;5041150;28;20037;-69
2024/03/16 05:16:57;;;;;;;2.60;0.90;;;;;;;7.06;100.00;96800.94;5042064;28;20087;-69
2024/03/16 05:19:22;;;;;;;0.65;0.55;;;;;;;7.08;100.00;96806.84;5019456;28;20558;-69
2024/03/16 05:21:48;;;;;;;1.17;0.70;;;;;;;7.20;100.00;96810.69;5042045;28;20046;-69
2024/03/16 05:24:13;;;;;;;1.60;0.73;;;;;;;7.17;100.00;96812.16;5035699;28;20090;-70
2024/03/16 05:26:39;;;;;;;1.20;0.60;;;;;;;7.18;100.00;96815.69;5041540;28;20049;-70
2024/03/16 05:29:05;;;;;;;1.27;0.70;;;;;;;7.05;100.00;96821.13;5035539;28;20052;-69
2024/03/16 05:31:32;;;;;;;0.57;0.57;;;;;;;6.99;100.00;96830.66;5040973;28;20049;-69
2024/03/16 05:33:58;;;;;;;1.10;0.77;;;;;;;6.97;100.00;96824.78;5041910;28;20107;-70
2024/03/16 05:36:23;;;;;;;0.60;0.60;;;;;;;7.02;100.00;96823.72;5011261;28;20041;-70
2024/03/16 05:38:49;;;;;;;0.60;0.50;;;;;;;7.15;100.00;96835.41;5037516;28;20041;-70
2024/03/16 05:41:15;;;;;;;0.90;0.60;;;;;;;7.26;100.00;96829.19;5034324;28;20487;-70
2024/03/16 05:43:44;;;;;;;0.95;0.50;;;;;;;7.33;100.00;96839.53;5021494;28;20138;-70
2024/03/16 05:46:10;;;;;;;1.52;0.50;;;;;;;7.34;100.00;96837.59;5011169;28;20049;-70
2024/03/16 05:48:35;;;;;;;0.60;0.60;;;;;;;7.29;100.00;96844.03;5046066;28;20041;-70
2024/03/16 05:51:02;;;;;;;1.10;0.70;;;;;;;7.18;100.00;96843.72;5039248;28;20592;-69
2024/03/16 05:53:28;;;;;;;1.85;0.70;;;;;;;7.21;100.00;96855.88;5009563;28;20084;-71
2024/03/16 05:55:53;;;;;;;0.93;0.50;;;;;;;7.40;100.00;96847.09;5011620;28;20068;-71
2024/03/16 05:58:21;;;;;;;1.58;0.90;;;;;;;7.62;100.00;96854.03;5037143;28;20041;-70
2024/03/16 06:00:48;;;;;;;1.50;0.70;;;;;;;7.65;100.00;96847.88;5055757;28;20946;-70
2024/03/16 06:03:13;;;;;;;1.58;0.88;;;;;;;7.72;100.00;96855.47;5034252;28;20048;-70
2024/03/16 06:05:40;;;;;;;1.63;0.80;;;;;;;7.75;100.00;96847.41;5041534;28;20109;-69
2024/03/16 06:08:07;;;;;;;1.48;0.90;;;;;;;7.76;100.00;96850.91;5034190;28;20524;-69
2024/03/16 06:10:33;;;;;;;1.73;0.88;;;;;;;7.78;100.00;96854.09;5024250;28;20045;-69
2024/03/16 06:12:58;;;;;;;3.47;0.80;;;;;;;7.78;100.00;96854.91;5039733;28;20494;-69
2024/03/16 06:15:24;;;;;;;2.63;0.88;;;;;;;7.86;100.00;96861.34;5017198;28;20055;-69
2024/03/16 06:17:49;;;;;;;2.53;0.90;;;;;;;7.86;100.00;96861.34;5040904;28;20037;-70
2024/03/16 06:20:16;;;;;;;1.33;1.00;;;;;;;7.99;100.00;96868.34;5016691;28;20045;-70
2024/03/16 06:22:41;;;;;;;4.18;1.10;;;;;;;8.08;100.00;96867.41;5021073;28;20124;-69
2024/03/16 06:25:12;;;;;;;1.98;1.00;;;;;;;7.96;100.00;96874.50;5024753;28;20136;-70
2024/03/16 06:27:43;;;;;;;2.70;1.08;;;;;;;7.97;100.00;96878.03;5040825;28;20045;-70
2024/03/16 06:30:15;;;;;;;1.45;0.80;;;;;;;8.12;100.00;96879.22;5037582;28;20136;-70
2024/03/16 06:32:55;;;;;;;0.73;0.60;;;;;;;8.19;100.00;96885.69;5041280;28;20045;-70
2024/03/16 06:35:21;;;;;;;3.22;0.68;;;;;;;8.12;100.00;96890.13;5027843;28;20052;-70
2024/03/16 06:37:46;;;;;;;3.88;0.88;;;;;;;8.13;100.00;96894.47;5037403;28;20029;-70
2024/03/16 06:40:14;;;;;;;2.17;0.88;;;;;;;8.30;100.00;96898.84;5049991;28;20184;-71
2024/03/16 06:42:39;;;;;;;0.65;0.55;;;;;;;8.56;100.00;96895.69;5032199;28;20043;-70
2024/03/16 06:45:06;;;;;;;2.13;0.60;;;;;;;9.30;100.00;96906.19;5033239;28;20043;-70
2024/03/16 06:47:31;;;;;;;0.73;0.50;;;;;;;9.80;100.00;96898.38;5040506;28;20087;-71
2024/03/16 06:49:57;;;;;;;0.40;0.40;;;;;;;10.81;100.00;96904.75;5049311;28;20098;-71
2024/03/16 06:52:24;;;;;;;1.52;0.50;;;;;;;12.21;100.00;96907.00;5036662;28;20826;-71
2024/03/16 06:54:52;;;;;;;0.43;0.40;;;;;;;12.68;100.00;96901.31;5041078;28;20061;-70
2024/03/16 06:57:17;;;;;;;0.60;0.30;;;;;;;13.04;100.00;96918.97;5025064;28;20041;-70
2024/03/16 06:59:42;;;;;;;0.43;0.40;;;;;;;12.70;100.00;96915.47;5038256;28;20045;-70
2024/03/16 07:02:08;;;;;;;0.63;0.50;;;;;;;12.54;100.00;96916.44;5038327;28;20045;-70
2024/03/16 07:04:33;;;;;;;0.68;0.38;;;;;;;12.60;100.00;96919.66;5038943;28;20037;-69
2024/03/16 07:06:59;;;;;;;0.45;0.40;;;;;;;12.31;100.00;96932.25;5022141;28;20087;-70
2024/03/16 07:09:24;;;;;;;0.93;0.60;;;;;;;13.04;100.00;96927.22;5035315;28;20399;-70
2024/03/16 07:11:49;;;;;;;3.03;1.10;;;;;;;14.32;100.00;96926.66;5038822;28;20045;-70
2024/03/16 07:14:15;;;;;;;1.58;0.60;;;;;;;14.33;100.00;96924.69;5033156;28;20499;-71
2024/03/16 07:16:41;;;;;;;0.60;0.32;;;;;;;13.91;100.00;96934.28;5041196;28;20123;-70
2024/03/16 07:19:07;;;;;;;0.45;0.40;;;;;;;13.30;100.00;96931.78;5033716;28;20072;-70
2024/03/16 07:21:32;;;;;;;2.00;0.65;;;;;;;12.88;100.00;96927.44;5025702;28;20495;-70
2024/03/16 07:23:58;;;;;;;0.40;0.30;;;;;;;12.18;100.00;96926.19;5011302;28;20040;-70
2024/03/16 07:26:23;;;;;;;2.58;0.50;;;;;;;12.14;100.00;96925.34;5013925;28;20045;-70
2024/03/16 07:28:49;;;;;;;2.33;0.60;;;;;;;11.67;100.00;96939.16;5028709;28;20488;-70
2024/03/16 07:31:14;;;;;;;1.05;0.50;;;;;;;11.32;100.00;96935.81;5018448;28;20276;-70
2024/03/16 07:33:39;;;;;;;2.17;0.50;;;;;;;10.76;100.00;96940.69;5053164;28;20063;-69
2024/03/16 07:36:05;;;;;;;0.80;0.50;;;;;;;10.70;100.00;96944.88;5034326;28;20067;-69
2024/03/16 07:38:30;;;;;;;1.92;0.70;;;;;;;10.59;100.00;96946.59;5039722;28;20041;-70
2024/03/16 07:40:56;;;;;;;0.45;0.40;;;;;;;10.62;100.00;96954.88;5030713;28;20049;-70
2024/03/16 07:43:22;;;;;;;1.08;0.52;;;;;;;10.37;100.00;96948.09;5018368;28;20881;-70
2024/03/16 07:45:50;;;;;;;0.52;0.50;;;;;;;10.27;100.00;96955.69;5013305;28;20136;-70
2024/03/16 07:48:16;;;;;;;2.53;0.70;;;;;;;9.87;100.00;96955.97;5034158;28;20055;-70
2024/03/16 07:50:41;;;;;;;2.03;0.68;;;;;;;9.74;100.00;96955.28;5027906;28;20045;-71
2024/03/16 07:53:06;;;;;;;1.92;0.60;;;;;;;9.77;100.00;96960.03;5044809;28;20105;-69
2024/03/16 07:55:33;;;;;;;3.20;0.60;;;;;;;9.51;100.00;96961.38;5039246;28;20045;-69
2024/03/16 07:57:58;;;;;;;1.33;0.50;;;;;;;9.56;100.00;96965.78;5037097;28;20045;-69
2024/03/16 08:00:24;;;;;;;3.88;0.85;;;;;;;9.43;100.00;96962.34;5035363;28;20052;-69
2024/03/16 08:02:50;;;;;;;5.22;0.95;;;;;;;9.47;100.00;96965.16;5043417;28;20049;-70
2024/03/16 08:05:15;;;;;;;19.73;7.28;;;;;;;9.54;100.00;96965.34;5029661;28;20060;-70
2024/03/16 08:07:41;;;;;;;2.25;1.00;;;;;;;9.57;100.00;96970.91;5030958;28;20061;-70
2024/03/16 08:10:09;;;;;;;3.65;1.30;;;;;;;9.66;100.00;96978.16;5019551;28;20045;-69
2024/03/16 08:12:35;;;;;;;2.55;1.17;;;;;;;9.92;100.00;96972.09;5043512;28;20072;-69
2024/03/16 08:15:00;;;;;;;7.18;2.22;;;;;;;10.04;100.00;96980.22;5042181;28;20128;-72
2024/03/16 08:17:26;;;;;;;3.05;1.50;;;;;;;10.30;100.00;96973.38;5021987;28;20045;-70
2024/03/16 08:19:52;;;;;;;2.60;0.80;;;;;;;10.25;100.00;96977.16;5043697;28;20048;-69
2024/03/16 08:22:18;;;;;;;1.10;0.68;;;;;;;10.15;100.00;96977.72;5034665;28;20082;-70
2024/03/16 08:24:44;;;;;;;2.88;0.93;;;;;;;10.17;100.00;96983.63;5042942;28;20053;-70
2024/03/16 08:27:09;;;;;;;3.78;1.00;;;;;;;10.20;100.00;96982.91;5010647;28;20049;-70
2024/03/16 08:29:35;;;;;;;5.85;0.95;;;;;;;9.93;100.00;96990.91;5042253;28;20040;-69
2024/03/16 08:32:00;;;;;;;3.63;1.20;;;;;;;9.91;100.00;96986.94;5033562;28;20080;-69
2024/03/16 08:34:25;;;;;;;1.80;0.80;;;;;;;9.80;100.00;96991.38;5034569;28;20076;-69
2024/03/16 08:36:51;;;;;;;3.65;1.40;;;;;;;9.84;100.00;96992.25;5034545;28;20132;-69
2024/03/16 08:39:16;;;;;;;5.03;0.90;;;;;;;9.82;100.00;96981.66;5027498;28;20068;-69
2024/03/16 08:41:42;;;;;;;5.07;1.17;;;;;;;9.93;100.00;96998.31;5037035;28;20045;-70
2024/03/16 08:44:07;;;;;;;4.65;1.45;;;;;;;10.06;100.00;97001.75;5036020;28;20041;-69
2024/03/16 08:46:33;;;;;;;5.05;1.10;;;;;;;10.07;100.00;97003.34;5042512;28;20048;-69
2024/03/16 08:48:58;;;;;;;8.48;1.20;;;;;;;9.80;100.00;97008.56;5020385;28;20057;-70
2024/03/16 08:51:24;;;;;;;3.22;1.08;;;;;;;9.70;100.00;97000.91;5030732;28;20140;-69
2024/03/16 08:53:50;;;;;;;2.03;0.90;;;;;;;9.69;100.00;96999.31;5058906;28;20060;-70
2024/03/16 08:56:15;;;;;;;3.13;1.23;;;;;;;9.51;100.00;97009.81;5039758;28;20048;-71
2024/03/16 08:58:42;;;;;;;4.65;1.50;;;;;;;9.41;100.00;97000.19;5042535;28;20055;-70
2024/03/16 09:01:08;;;;;;;3.38;1.50;;;;;;;9.57;100.00;96998.25;5036243;28;20052;-70
2024/03/16 09:03:33;;;;;;;34.15;14.70;;;;;;;9.59;100.00;97002.59;5035711;28;20066;-70
2024/03/16 09:06:01;;;;;;;8.20;4.45;;;;;;;9.62;100.00;97001.88;5024282;28;20114;-69
2024/03/16 09:08:27;;;;;;;6.25;3.25;;;;;;;9.56;100.00;97002.13;5034853;28;20060;-67
2024/03/16 09:10:53;;;;;;;4.55;1.02;;;;;;;9.52;100.00;97001.25;5038137;28;20111;-68
2024/03/16 09:13:18;;;;;;;7.97;3.78;;;;;;;9.66;100.00;97010.97;5049182;28;20079;-71
2024/03/16 09:15:44;;;;;;;5.18;1.73;;;;;;;9.72;100.00;97013.09;5053972;28;20188;-69
2024/03/16 09:18:09;;;;;;;2.40;1.05;;;;;;;9.67;100.00;97018.81;5018265;28;20046;-69
2024/03/16 09:20:35;;;;;;;3.78;1.48;;;;;;;9.81;100.00;97012.88;5035836;28;20518;-68
2024/03/16 09:23:01;;;;;;;4.47;1.40;;;;;;;10.01;100.00;97015.69;5024229;28;20557;-70
2024/03/16 09:25:26;;;;;;;3.83;1.15;;;;;;;10.23;100.00;97023.25;5048901;28;20080;-70
2024/03/16 09:27:52;;;;;;;4.03;1.58;;;;;;;10.41;100.00;97010.00;5036127;28;20107;-68
2024/03/16 09:30:18;;;;;;;4.43;1.45;;;;;;;10.86;100.00;97016.81;5021186;28;20056;-68
2024/03/16 09:32:44;;;;;;;5.32;1.40;;;;;;;11.16;100.00;97009.94;5036737;28;20044;-70
2024/03/16 09:35:12;;;;;;;3.45;1.00;;;;;;;10.92;100.00;97013.78;5035920;28;20040;-68
2024/03/16 09:37:37;;;;;;;2.38;1.02;;;;;;;10.70;100.00;97014.16;5036365;28;20049;-68
2024/03/16 09:40:13;;;;;;;4.78;1.00;;;;;;;11.24;100.00;97009.72;5025912;28;20041;-71
2024/03/16 09:42:41;;;;;;;5.35;0.95;;;;;;;12.24;100.00;97010.63;5040777;28;20130;-70
2024/03/16 09:45:28;;;;;;;2.58;0.90;;;;;;;12.21;100.00;97005.88;5039422;28;20041;-70
2024/03/16 09:47:54;;;;;;;2.00;0.80;;;;;;;12.97;100.00;97024.16;5043206;28;20040;-69
2024/03/16 09:50:21;;;;;;;3.85;0.98;;;;;;;13.46;100.00;97027.06;5024595;28;20048;-69
2024/03/16 09:52:49;;;;;;;4.55;0.95;;;;;;;13.19;100.00;97030.69;5041615;28;20123;-68
2024/03/16 09:55:14;;;;;;;3.70;0.90;;;;;;;13.05;100.00;97027.78;5042652;28;20041;-70
2024/03/16 09:57:40;;;;;;;6.20;1.02;;;;;;;13.57;100.00;97026.00;5045040;28;20449;-68
2024/03/16 10:00:11;;;;;;;3.72;0.90;;;;;;;12.99;100.00;97019.06;5036567;28;20048;-69
2024/03/16 10:02:38;;;;;;;4.47;1.20;;;;;;;12.84;100.00;97030.25;5023270;28;20041;-70
2024/03/16 10:05:11;;;;;;;4.05;0.95;;;;;;;13.01;100.00;97019.47;5027072;28;20049;-71
2024/03/16 10:07:37;;;;;;;4.80;1.00;;;;;;;12.68;100.00;97030.47;5027024;28;20045;-70
2024/03/16 10:10:03;;;;;;;3.47;1.02;;;;;;;12.43;100.00;97022.66;5033596;28;20068;-72
2024/03/16 10:12:29;;;;;;;4.63;1.55;;;;;;;12.18;100.00;97030.53;5040912;28;20047;-69
2024/03/16 10:15:00;;;;;;;6.00;1.02;;;;;;;12.03;100.00;97033.06;5039997;28;20041;-69
2024/03/16 10:17:27;;;;;;;3.65;1.05;;;;;;;12.03;100.00;97022.06;5027691;28;20097;-69
2024/03/16 10:19:52;;;;;;;2.92;1.10;;;;;;;11.72;100.00;97030.53;5022169;28;20041;-69
2024/03/16 10:22:18;;;;;;;4.18;0.90;;;;;;;11.67;100.00;97026.16;5033474;28;20047;-69
2024/03/16 10:24:43;;;;;;;3.05;1.15;;;;;;;11.69;100.00;97036.78;5019691;28;20506;-68
2024/03/16 10:27:11;;;;;;;2.63;0.98;;;;;;;11.50;100.00;97038.38;5022307;28;20038;-68
2024/03/16 10:29:39;;;;;;;2.80;0.75;;;;;;;11.26;100.00;97045.00;5029184;28;20048;-69
2024/03/16 10:32:06;;;;;;;5.38;0.95;;;;;;;11.38;100.00;97050.34;5011942;28;20052;-68
2024/03/16 10:34:34;;;;;;;3.55;1.00;;;;;;;11.63;100.00;97030.78;5017867;28;20447;-69
2024/03/16 10:37:01;;;;;;;6.40;0.90;;;;;;;11.60;100.00;97028.78;5028316;28;20044;-69
2024/03/16 10:39:28;;;;;;;3.20;0.95;;;;;;;11.70;100.00;97038.34;5006995;28;20443;-68
2024/03/16 10:41:56;;;;;;;4.05;0.90;;;;;;;11.63;100.00;97034.31;5021197;28;20045;-68
2024/03/16 10:44:22;;;;;;;3.78;1.00;;;;;;;11.96;100.00;97034.91;5032224;28;20111;-69
2024/03/16 10:46:48;;;;;;;4.03;0.82;;;;;;;11.83;100.00;97037.81;5027152;28;20083;-69
2024/03/16 10:49:13;;;;;;;5.85;1.30;;;;;;;11.62;100.00;97040.19;5037431;28;20503;-68
2024/03/16 10:51:39;;;;;;;4.88;0.98;;;;;;;11.66;100.00;97032.78;5034015;28;20170;-68
2024/03/16 10:54:10;;;;;;;2.58;1.08;;;;;;;11.87;100.00;97035.13;5034613;28;20057;-69
2024/03/16 10:56:36;;;;;;;5.45;1.10;;;;;;;12.25;100.00;97036.13;5013119;28;20038;-72
2024/03/16 10:59:05;;;;;;;4.13;0.90;;;;;;;12.54;100.00;97036.56;5039778;28;20071;-71
2024/03/16 11:01:32;;;;;;;3.78;0.70;;;;;;;12.48;100.00;97027.03;5020632;28;20064;-69
2024/03/16 11:04:01;;;;;;;6.80;1.30;;;;;;;12.48;100.00;97027.84;5042382;28;20048;-69
2024/03/16 11:06:28;;;;;;;4.20;0.73;;;;;;;12.29;100.00;97036.97;5017483;28;20140;-69
2024/03/16 11:08:58;;;;;;;5.55;1.05;;;;;;;12.20;100.00;97036.44;5041250;28;20060;-68
2024/03/16 11:11:30;;;;;;;3.88;1.05;;;;;;;12.50;100.00;97035.72;5034335;28;20048;-70
2024/03/16 11:13:56;;;;;;;3.28;0.77;;;;;;;12.97;100.00;97037.13;5038813;28;20044;-69
2024/03/16 11:16:27;;;;;;;4.50;0.90;;;;;;;13.42;100.00;97032.53;5034411;28;20513;-70
2024/03/16 11:18:59;;;;;;;3.15;0.85;;;;;;;13.04;100.00;97034.44;5039825;28;20043;-70
2024/03/16 11:21:30;;;;;;;6.80;1.40;;;;;;;13.11;100.00;97029.03;5035601;28;20128;-69
2024/03/16 11:24:03;;;;;;;4.20;0.70;;;;;;;12.92;100.00;97037.44;5039631;28;20068;-70
2024/03/16 11:26:32;;;;;;;4.05;0.80;;;;;;;12.71;100.00;97033.25;5030080;28;20041;-70